Time;durP1;ratioP1;P1;durP2;ratioP2;P2;SDS_P1;SDS_P2;PMS_P1;PMS_P2;Temp;Humidity;BMP_temperature;BMP_pressure;BME280_temperature;BME280_humidity;BME280_pressure;Samples;Min_cycle;Max_cycle;Signal;HPM_P1;HPM_P2
2023/10/01 00:00:28;;;;;;;;;;;;;;;23.29;43.39;100556.00;4487301;31;34798;-70
2023/10/01 00:02:59;;;;;;;;;;;;;;;23.36;43.51;100557.78;4494839;31;33759;-70
2023/10/01 00:05:26;;;;;;;;;;;;;;;23.66;43.20;100571.12;4494622;31;33598;-70
2023/10/01 00:07:54;;;;;;;;;;;;;;;23.83;42.35;100558.00;4498139;31;33060;-70
2023/10/01 00:10:22;;;;;;;;;;;;;;;23.77;42.23;100563.25;4488250;31;34099;-70
2023/10/01 00:12:50;;;;;;;;;;;;;;;23.52;43.12;100557.84;4482266;31;34247;-70
2023/10/01 00:15:18;;;;;;;;;;;;;;;23.38;41.95;100557.81;4493347;31;34161;-70
2023/10/01 00:17:48;;;;;;;;;;;;;;;23.84;41.04;100565.06;4491053;31;33218;-70
2023/10/01 00:20:27;;;;;;;;;;;;;;;23.71;41.86;100567.62;4498344;31;34082;-69
2023/10/01 00:23:00;;;;;;;;;;;;;;;23.61;41.55;100565.84;4491413;31;35027;-69
2023/10/01 00:25:28;;;;;;;;;;;;;;;23.53;41.79;100570.22;4489997;31;33566;-70
2023/10/01 00:27:59;;;;;;;;;;;;;;;23.10;43.20;100577.91;4488768;31;33162;-70
2023/10/01 00:30:33;;;;;;;;;;;;;;;23.06;42.90;100573.50;4492148;31;33681;-70
2023/10/01 00:33:05;;;;;;;;;;;;;;;23.35;41.71;100574.56;4491103;31;33767;-70
2023/10/01 00:35:33;;;;;;;;;;;;;;;23.20;42.08;100577.09;4497376;31;33668;-70
2023/10/01 00:38:01;;;;;;;;;;;;;;;23.31;41.72;100559.56;4497230;31;33266;-69
2023/10/01 00:40:29;;;;;;;;;;;;;;;23.22;41.51;100564.78;4487706;31;35112;-70
2023/10/01 00:42:57;;;;;;;;;;;;;;;23.51;40.88;100558.75;4495552;31;34658;-70
2023/10/01 00:45:25;;;;;;;;;;;;;;;23.30;41.68;100557.78;4491307;31;33956;-70
2023/10/01 00:47:53;;;;;;;;;;;;;;;23.09;41.85;100562.94;4509432;31;33700;-70
2023/10/01 00:50:21;;;;;;;;;;;;;;;23.50;40.50;100559.63;4496770;31;34889;-70
2023/10/01 00:52:51;;;;;;;;;;;;;;;22.17;44.78;100558.69;4476538;31;34056;-70
2023/10/01 00:55:20;;;;;;;;;;;;;;;23.22;41.21;100558.59;4479272;32;34153;-70
2023/10/01 00:57:49;;;;;;;;;;;;;;;23.28;40.83;100563.94;4499079;31;32629;-69
2023/10/01 01:00:18;;;;;;;;;;;;;;;22.86;41.40;100562.78;4487892;31;33975;-69
2023/10/01 01:03:06;;;;;;;;;;;;;;;22.61;42.03;100564.34;4496438;31;34014;-69
2023/10/01 01:05:35;;;;;;;;;;;;;;;22.61;41.46;100561.72;4480066;31;31793;-69
2023/10/01 01:08:21;;;;;;;;;;;;;;;22.72;41.47;100573.25;4487469;31;33079;-69
2023/10/01 01:10:50;;;;;;;;;;;;;;;22.50;42.04;100585.38;4490471;31;33714;-69
2023/10/01 01:13:17;;;;;;;;;;;;;;;22.72;41.37;100583.81;4493188;31;35017;-70
2023/10/01 01:15:45;;;;;;;;;;;;;;;22.45;42.31;100579.19;4486922;31;34536;-69
2023/10/01 01:18:14;;;;;;;;;;;;;;;22.46;42.50;100581.81;4498175;31;32660;-69
2023/10/01 01:20:45;;;;;;;;;;;;;;;22.10;43.55;100583.22;4486861;31;34215;-69
2023/10/01 01:23:16;;;;;;;;;;;;;;;22.41;41.86;100583.56;4491314;31;34898;-70
2023/10/01 01:25:45;;;;;;;;;;;;;;;22.36;41.49;100572.94;4485003;31;34879;-70
2023/10/01 01:28:12;;;;;;;;;;;;;;;21.98;41.98;100581.34;4483964;31;33735;-69
2023/10/01 01:30:43;;;;;;;;;;;;;;;22.22;41.48;100579.81;4492893;31;33938;-69
2023/10/01 01:33:16;;;;;;;;;;;;;;;21.88;42.39;100586.50;4502068;31;34921;-69
2023/10/01 01:35:49;;;;;;;;;;;;;;;21.83;42.43;100575.91;4495931;31;34083;-69
2023/10/01 01:38:17;;;;;;;;;;;;;;;21.85;42.24;100589.13;4489146;31;33901;-69
2023/10/01 01:40:47;;;;;;;;;;;;;;;21.21;43.93;100590.91;4480468;32;34598;-69
2023/10/01 01:43:15;;;;;;;;;;;;;;;21.21;43.50;100603.22;4491859;31;34784;-69
2023/10/01 01:45:44;;;;;;;;;;;;;;;21.47;42.94;100605.34;4490121;31;33686;-69
2023/10/01 01:48:30;;;;;;;;;;;;;;;21.23;44.33;100606.75;4492188;31;33059;-69
2023/10/01 01:51:00;;;;;;;;;;;;;;;21.63;42.77;100607.28;4494679;31;34328;-70
2023/10/01 01:53:34;;;;;;;;;;;;;;;21.40;43.85;100610.50;4490371;31;33795;-69
2023/10/01 01:56:08;;;;;;;;;;;;;;;21.16;44.83;100604.88;4471945;32;34046;-69
2023/10/01 01:58:37;;;;;;;;;;;;;;;21.33;44.20;100602.50;4473653;31;32740;-69
2023/10/01 02:01:08;;;;;;;;;;;;;;;21.39;43.78;100594.66;4478380;31;34168;-69
2023/10/01 02:03:37;;;;;;;;;;;;;;;22.01;42.16;100588.41;4493792;31;34192;-69
2023/10/01 02:06:07;;;;;;;;;;;;;;;21.73;42.51;100589.81;4471263;31;33879;-69
2023/10/01 02:08:35;;;;;;;;;;;;;;;21.72;42.15;100590.72;4484730;31;33488;-69
2023/10/01 02:11:09;;;;;;;;;;;;;;;22.07;41.53;100599.00;4491378;31;34296;-69
2023/10/01 02:13:41;;;;;;;;;;;;;;;21.62;42.95;100587.09;4493981;31;33905;-69
2023/10/01 02:21:52;;;;;;;;;;;;;;;21.49;42.26;100587.78;4498448;31;33843;-69
2023/10/01 02:24:37;;;;;;;;;;;;;;;21.63;41.70;100580.94;4489274;31;33906;-69
2023/10/01 02:27:06;;;;;;;;;;;;;;;21.71;41.00;100589.84;4495480;31;34323;-69
2023/10/01 02:29:45;;;;;;;;;;;;;;;21.95;40.27;100590.97;4481828;31;33815;-70
2023/10/01 02:32:14;;;;;;;;;;;;;;;21.59;41.10;100601.12;4499706;31;34544;-69
2023/10/01 02:34:42;;;;;;;;;;;;;;;21.29;42.39;100590.13;4490233;31;34195;-69
2023/10/01 02:37:10;;;;;;;;;;;;;;;21.12;42.26;100587.25;4494946;31;33707;-70
2023/10/01 02:39:38;;;;;;;;;;;;;;;21.28;42.29;100589.22;4490312;31;33420;-69
2023/10/01 02:42:09;;;;;;;;;;;;;;;21.52;41.43;100598.38;4496580;31;34861;-69
2023/10/01 02:44:46;;;;;;;;;;;;;;;21.36;41.30;100594.59;4469963;31;34051;-69
2023/10/01 02:47:18;;;;;;;;;;;;;;;21.58;40.92;100599.34;4495885;31;34156;-69
2023/10/01 02:49:49;;;;;;;;;;;;;;;21.92;40.00;100606.75;4491026;31;33959;-69
2023/10/01 02:52:17;;;;;;;;;;;;;;;21.18;41.92;100613.69;4473978;31;33975;-69
2023/10/01 02:54:53;;;;;;;;;;;;;;;20.99;41.94;100609.87;4486265;31;34614;-69
2023/10/01 02:57:26;;;;;;;;;;;;;;;21.63;40.02;100616.97;4489375;31;34538;-69
2023/10/01 03:02:53;;;;;;;;;;;;;;;21.39;41.30;100607.84;4484415;31;34177;-69
2023/10/01 03:05:28;;;;;;;;;;;;;;;21.26;42.92;100604.13;4499414;31;34621;-69
2023/10/01 03:08:11;;;;;;;;;;;;;;;20.69;44.84;100612.94;4474827;31;32795;-69
2023/10/01 03:10:39;;;;;;;;;;;;;;;20.85;43.75;100606.16;4492038;31;33279;-70
2023/10/01 03:13:16;;;;;;;;;;;;;;;20.80;43.51;100606.06;4493227;31;34737;-69
2023/10/01 03:15:44;;;;;;;;;;;;;;;21.44;41.85;100605.28;4472513;31;33562;-70
2023/10/01 03:18:46;;;;;;;;;;;;;;;21.96;39.61;100605.91;4459254;31;32037;-70
2023/10/01 03:21:17;;;;;;;;;;;;;;;21.91;39.51;100603.25;4483785;31;33055;-69
2023/10/01 03:23:53;;;;;;;;;;;;;;;21.72;39.53;100602.13;4484587;31;34906;-70
2023/10/01 03:26:21;;;;;;;;;;;;;;;21.49;39.88;100603.59;4498634;31;33605;-70
2023/10/01 03:31:37;;;;;;;;;;;;;;;21.80;39.13;100604.88;4491582;31;33932;-70
2023/10/01 03:34:05;;;;;;;;;;;;;;;21.69;39.63;100602.13;4488442;31;33219;-69
2023/10/01 03:36:38;;;;;;;;;;;;;;;21.56;40.03;100610.75;4488873;31;34230;-69
2023/10/01 03:39:25;;;;;;;;;;;;;;;21.45;39.87;100601.81;4494461;31;34089;-69
2023/10/01 03:42:13;;;;;;;;;;;;;;;21.66;39.61;100596.78;4484952;31;33373;-69
2023/10/01 03:47:27;;;;;;;;;;;;;;;21.20;40.48;100596.16;4492689;31;34110;-69
2023/10/01 03:49:55;;;;;;;;;;;;;;;21.43;40.44;100592.94;4497839;31;34335;-70
2023/10/01 03:52:22;;;;;;;;;;;;;;;21.37;40.17;100599.91;4486415;31;33625;-70
2023/10/01 03:55:00;;;;;;;;;;;;;;;21.49;39.85;100595.69;4487054;31;33840;-69
2023/10/01 03:57:29;;;;;;;;;;;;;;;21.69;39.77;100601.22;4492438;31;33892;-69
2023/10/01 04:00:11;;;;;;;;;;;;;;;21.86;39.49;100602.28;4488146;31;33938;-69
2023/10/01 04:02:47;;;;;;;;;;;;;;;21.48;40.58;100607.09;4497330;31;32183;-70
2023/10/01 04:05:44;;;;;;;;;;;;;;;21.85;40.17;100610.22;4501071;31;34043;-70
2023/10/01 04:08:12;;;;;;;;;;;;;;;21.13;42.50;100605.72;4490290;31;34006;-69
2023/10/01 04:10:39;;;;;;;;;;;;;;;21.21;42.15;100608.47;4480816;31;31843;-70
2023/10/01 04:13:13;;;;;;;;;;;;;;;21.37;40.38;100599.91;4492367;31;33075;-70
2023/10/01 04:15:45;;;;;;;;;;;;;;;21.67;40.71;100603.84;4477201;32;34732;-70
2023/10/01 04:23:48;;;;;;;;;;;;;;;21.55;40.86;100617.75;4491835;31;33126;-70
2023/10/01 04:26:17;;;;;;;;;;;;;;;21.41;41.35;100617.53;4497997;31;33907;-70
2023/10/01 04:28:45;;;;;;;;;;;;;;;21.54;40.96;100621.25;4489506;31;34183;-70
2023/10/01 04:34:11;;;;;;;;;;;;;;;21.90;38.95;100621.69;4488847;31;33881;-70
2023/10/01 04:36:39;;;;;;;;;;;;;;;21.33;40.70;100629.72;4489719;31;33861;-70
2023/10/01 04:39:06;;;;;;;;;;;;;;;21.43;41.03;100627.22;4494031;31;33958;-70
2023/10/01 04:41:34;;;;;;;;;;;;;;;21.48;41.49;100629.09;4495599;31;34712;-70
2023/10/01 04:44:07;;;;;;;;;;;;;;;21.14;41.93;100633.84;4486170;31;33305;-70
2023/10/01 04:46:37;;;;;;;;;;;;;;;21.60;41.10;100634.50;4490151;31;34003;-70
2023/10/01 04:52:10;;;;;;;;;;;;;;;21.72;40.25;100644.31;4498207;31;33671;-70
2023/10/01 04:54:40;;;;;;;;;;;;;;;21.61;39.99;100640.66;4497313;31;33765;-70
2023/10/01 04:57:08;;;;;;;;;;;;;;;21.69;39.44;100639.03;4475558;31;35020;-70
2023/10/01 04:59:51;;;;;;;;;;;;;;;21.53;39.37;100650.22;4497921;31;34813;-70
2023/10/01 05:02:21;;;;;;;;;;;;;;;21.82;39.12;100649.72;4489156;31;33965;-70
2023/10/01 05:04:51;;;;;;;;;;;;;;;21.23;41.83;100653.25;4495899;31;33075;-70
2023/10/01 05:07:18;;;;;;;;;;;;;;;20.19;44.32;100659.38;4493739;31;33848;-70
2023/10/01 05:09:47;;;;;;;;;;;;;;;20.04;44.38;100664.34;4491155;31;34690;-70
2023/10/01 05:12:17;;;;;;;;;;;;;;;20.51;43.63;100669.59;4488361;31;34008;-70
2023/10/01 05:14:59;;;;;;;;;;;;;;;19.98;44.20;100669.47;4495976;31;33239;-70
2023/10/01 05:17:30;;;;;;;;;;;;;;;20.54;43.73;100661.78;4498326;31;34077;-70
2023/10/01 05:20:08;;;;;;;;;;;;;;;20.20;44.31;100661.16;4493609;31;34218;-70
2023/10/01 05:22:46;;;;;;;;;;;;;;;20.74;42.88;100659.53;4490344;31;34082;-70
2023/10/01 05:25:18;;;;;;;;;;;;;;;20.46;44.01;100665.16;4486301;31;33379;-70
2023/10/01 05:27:53;;;;;;;;;;;;;;;20.07;45.02;100672.31;4499814;31;35122;-70
2023/10/01 05:30:39;;;;;;;;;;;;;;;20.35;44.25;100670.19;4497053;31;33973;-70
2023/10/01 05:33:07;;;;;;;;;;;;;;;20.57;43.37;100666.19;4488990;31;34421;-70
2023/10/01 05:35:44;;;;;;;;;;;;;;;20.92;42.58;100669.50;4494759;31;33508;-70
2023/10/01 05:38:14;;;;;;;;;;;;;;;20.84;42.58;100662.31;4490459;31;34711;-70
2023/10/01 05:41:03;;;;;;;;;;;;;;;20.22;44.43;100667.34;4489928;31;35013;-70
2023/10/01 05:43:35;;;;;;;;;;;;;;;19.80;45.51;100681.41;4494851;31;33045;-70
2023/10/01 05:46:08;;;;;;;;;;;;;;;20.76;42.88;100680.63;4487988;31;34161;-70
2023/10/01 05:48:37;;;;;;;;;;;;;;;20.32;43.89;100685.91;4490011;31;35020;-70
2023/10/01 05:51:06;;;;;;;;;;;;;;;20.40;44.40;100684.34;4493801;31;34233;-70
2023/10/01 05:53:36;;;;;;;;;;;;;;;21.39;41.78;100690.41;4493372;31;34131;-70
2023/10/01 05:56:10;;;;;;;;;;;;;;;19.56;45.88;100693.97;4486498;31;33460;-70
2023/10/01 05:58:38;;;;;;;;;;;;;;;20.12;44.27;100691.69;4484661;31;34346;-70
2023/10/01 06:01:06;;;;;;;;;;;;;;;21.25;41.95;100686.69;4489157;31;34670;-70
2023/10/01 06:03:34;;;;;;;;;;;;;;;21.12;42.53;100684.72;4490458;31;33879;-70
2023/10/01 06:06:10;;;;;;;;;;;;;;;20.64;44.16;100693.56;4486824;31;33536;-70
2023/10/01 06:08:49;;;;;;;;;;;;;;;21.16;42.89;100699.72;4488349;31;33940;-70
2023/10/01 06:11:17;;;;;;;;;;;;;;;20.47;43.95;100701.13;4492368;31;34874;-70
2023/10/01 06:13:49;;;;;;;;;;;;;;;20.81;43.11;100707.91;4494889;31;34846;-70
2023/10/01 06:16:22;;;;;;;;;;;;;;;20.86;43.71;100698.37;4486940;31;33203;-70
2023/10/01 06:18:51;;;;;;;;;;;;;;;21.04;42.95;100696.91;4487882;31;34031;-70
2023/10/01 06:21:24;;;;;;;;;;;;;;;20.61;44.32;100699.69;4490023;31;34365;-70
2023/10/01 06:23:53;;;;;;;;;;;;;;;21.12;42.96;100693.50;4497285;31;34397;-70
2023/10/01 06:26:22;;;;;;;;;;;;;;;21.35;42.37;100690.34;4486741;31;33224;-70
2023/10/01 06:28:49;;;;;;;;;;;;;;;21.29;42.99;100695.53;4487759;31;34035;-70
2023/10/01 06:31:17;;;;;;;;;;;;;;;21.45;42.42;100700.19;4485696;31;33826;-70
2023/10/01 06:33:45;;;;;;;;;;;;;;;21.15;42.93;100705.84;4490594;31;37615;-70
2023/10/01 06:36:15;;;;;;;;;;;;;;;21.21;42.90;100698.94;4487524;31;33801;-70
2023/10/01 06:38:44;;;;;;;;;;;;;;;21.28;43.15;100704.28;4481815;31;35102;-70
2023/10/01 06:41:16;;;;;;;;;;;;;;;21.81;41.53;100709.50;4478280;32;34683;-70
2023/10/01 06:43:48;;;;;;;;;;;;;;;21.72;41.52;100697.06;4494407;31;34783;-70
2023/10/01 06:46:22;;;;;;;;;;;;;;;21.91;41.20;100705.22;4479168;31;33247;-70
2023/10/01 06:48:50;;;;;;;;;;;;;;;22.39;40.18;100701.44;4489177;31;33886;-70
2023/10/01 06:51:21;;;;;;;;;;;;;;;22.56;39.77;100698.94;4491843;31;34835;-70
2023/10/01 06:53:53;;;;;;;;;;;;;;;22.14;40.32;100700.25;4506683;31;34254;-70
2023/10/01 06:56:21;;;;;;;;;;;;;;;21.80;40.92;100695.41;4489541;31;33083;-70
2023/10/01 07:01:34;;;;;;;;;;;;;;;21.89;40.50;100705.22;4493328;31;34218;-70
2023/10/01 07:04:03;;;;;;;;;;;;;;;21.74;40.96;100721.69;4492735;31;33881;-70
2023/10/01 07:06:30;;;;;;;;;;;;;;;21.75;41.67;100723.50;4493240;31;34083;-71
2023/10/01 07:08:59;;;;;;;;;;;;;;;21.77;41.20;100721.75;4494944;31;34701;-70
2023/10/01 07:11:28;;;;;;;;;;;;;;;21.89;41.39;100725.44;4490505;31;33956;-70
2023/10/01 07:13:56;;;;;;;;;;;;;;;22.09;40.78;100718.63;4494929;31;34845;-70
2023/10/01 07:16:35;;;;;;;;;;;;;;;22.18;41.12;100713.47;4497975;31;33625;-70
2023/10/01 07:19:11;;;;;;;;;;;;;;;22.01;41.02;100720.31;4488138;31;34870;-70
2023/10/01 07:21:41;;;;;;;;;;;;;;;22.50;39.19;100720.00;4496275;31;34816;-70
2023/10/01 07:24:12;;;;;;;;;;;;;;;22.60;39.07;100726.28;4489269;31;34203;-70
2023/10/01 07:26:42;;;;;;;;;;;;;;;22.52;39.79;100719.19;4499690;31;33382;-70
2023/10/01 07:29:09;;;;;;;;;;;;;;;22.47;39.01;100723.53;4496890;31;34598;-71
2023/10/01 07:31:36;;;;;;;;;;;;;;;22.09;41.04;100723.03;4496305;31;34254;-70
2023/10/01 07:34:13;;;;;;;;;;;;;;;22.48;39.32;100712.06;4495245;31;34227;-70
2023/10/01 07:36:42;;;;;;;6.28;1.98;;;;;;;22.05;41.18;100719.47;4478664;31;31968;-70
2023/10/01 07:39:12;;;;;;;;;;;;;;;22.64;39.99;100718.44;4493542;31;34004;-70
2023/10/01 07:41:44;;;;;;;;;;;;;;;22.96;39.24;100725.75;4493055;31;33905;-70
2023/10/01 07:44:12;;;;;;;;;;;;;;;23.47;37.78;100729.72;4495328;31;33466;-70
2023/10/01 07:46:40;;;;;;;;;;;;;;;23.32;37.61;100722.56;4493027;31;33086;-70
2023/10/01 07:49:11;;;;;;;8.98;1.90;;;;;;;23.49;38.51;100721.81;4489168;31;33650;-70
2023/10/01 07:51:39;;;;;;;7.93;2.17;;;;;;;24.36;36.80;100725.75;4491232;31;34714;-71
2023/10/01 07:54:12;;;;;;;6.65;1.73;;;;;;;24.45;36.55;100724.00;4488531;31;34595;-70
2023/10/01 07:56:48;;;;;;;9.05;1.95;;;;;;;24.33;36.82;100718.69;4489695;31;33932;-70
2023/10/01 07:59:34;;;;;;;5.10;1.77;;;;;;;24.61;36.10;100726.72;4494360;31;33512;-70
2023/10/01 08:07:15;;;;;;;;;;;;;;;25.38;34.24;100710.88;4492642;31;32847;-70
2023/10/01 08:09:51;;;;;;;;;;;;;;;25.75;33.23;100710.81;4489209;31;34946;-70
2023/10/01 08:12:28;;;;;;;;;;;;;;;25.41;33.00;100724.16;4491231;31;34907;-70
2023/10/01 08:17:46;;;;;;;;;;;;;;;25.78;32.86;100726.72;4493239;31;33410;-71
2023/10/01 08:20:31;;;;;;;6.43;1.60;;;;;;;25.98;32.85;100732.91;4488581;31;33696;-69
2023/10/01 08:23:22;;;;;;;5.43;1.58;;;;;;;25.01;33.32;100735.63;4489831;31;34079;-69
2023/10/01 08:25:55;;;;;;;6.82;2.20;;;;;;;24.61;34.35;100730.28;4486725;31;32785;-69
2023/10/01 08:31:20;;;;;;;6.50;1.80;;;;;;;24.14;35.39;100715.09;4488506;31;33757;-69
2023/10/01 08:33:51;;;;;;;4.97;1.35;;;;;;;24.45;34.31;100728.44;4482078;31;34642;-70
2023/10/01 08:36:24;;;;;;;3.55;1.30;;;;;;;24.62;33.72;100732.03;4490059;31;33730;-70
2023/10/01 08:41:50;;;;;;;;;;;;;;;24.41;34.11;100735.47;4489605;31;34388;-69
2023/10/01 08:44:30;;;;;;;;;;;;;;;24.19;33.94;100736.31;4478953;31;33558;-69
2023/10/01 08:46:59;;;;;;;;;;;;;;;24.80;33.27;100740.91;4491509;31;34205;-70
2023/10/01 08:49:31;;;;;;;;;;;;;;;24.59;33.73;100752.34;4492040;31;35365;-70
2023/10/01 08:54:45;;;;;;;5.90;1.37;;;;;;;24.90;33.19;100764.78;4475356;31;34019;-70
2023/10/01 08:57:22;;;;;;;;;;;;;;;25.30;33.14;100759.53;4495059;31;32760;-70
2023/10/01 08:59:53;;;;;;;4.72;1.65;;;;;;;25.43;33.01;100754.22;4493463;31;32116;-69
2023/10/01 09:02:23;;;;;;;8.82;1.98;;;;;;;25.43;32.25;100749.78;4491892;31;33689;-69
2023/10/01 09:04:50;;;;;;;5.30;1.60;;;;;;;25.42;32.01;100742.72;4490231;31;33884;-70
2023/10/01 09:07:18;;;;;;;6.03;1.60;;;;;;;25.28;31.82;100745.41;4471206;31;34087;-70
2023/10/01 09:10:09;;;;;;;6.43;1.48;;;;;;;25.67;31.57;100753.28;4489895;31;33085;-70
2023/10/01 09:12:45;;;;;;;8.77;1.70;;;;;;;26.14;31.52;100748.78;4478880;31;33718;-69
2023/10/01 09:15:27;;;;;;;5.95;2.05;;;;;;;25.63;31.67;100752.44;4495937;31;33567;-70
2023/10/01 09:17:58;;;;;;;4.75;1.70;;;;;;;25.75;31.13;100743.56;4484863;32;33939;-70
2023/10/01 09:20:40;;;;;;;6.53;1.98;;;;;;;25.64;31.70;100735.59;4484229;32;33081;-70
2023/10/01 09:23:08;;;;;;;6.50;1.65;;;;;;;26.23;30.71;100738.09;4484777;32;34745;-70
2023/10/01 09:25:39;;;;;;;4.55;1.48;;;;;;;26.03;30.87;100741.72;4484503;32;34009;-70
2023/10/01 09:28:29;;;;;;;;;;;;;;;26.58;30.68;100735.25;4483878;31;33757;-69
2023/10/01 09:31:52;;;;;;;;;;;;;;;26.83;30.74;100736.00;4495466;31;32872;-70
2023/10/01 09:33:51;;;;;;;;;;;;;;;27.17;29.51;100732.19;4490316;31;34704;-69
2023/10/01 09:36:35;;;;;;;;;;;;;;;27.05;29.84;100739.38;4476021;31;32372;-70
2023/10/01 09:39:06;;;;;;;;;;;;;;;26.98;30.24;100729.66;4471065;32;33935;-70
2023/10/01 09:41:43;;;;;;;;;;;;;;;27.35;29.42;100728.50;4492489;31;33199;-70
2023/10/01 09:44:14;;;;;;;;;;;;;;;26.97;30.38;100732.37;4493979;31;35063;-70
2023/10/01 09:46:42;;;;;;;;;;;;;;;27.24;29.25;100732.16;4477017;32;34126;-70
2023/10/01 09:49:09;;;;;;;;;;;;;;;27.53;27.80;100732.78;4475733;31;34030;-69
2023/10/01 09:51:41;;;;;;;;;;;;;;;26.91;29.76;100732.37;4480498;31;33345;-69
2023/10/01 09:54:11;;;;;;;;;;;;;;;27.15;29.83;100736.66;4484107;31;34763;-70
2023/10/01 09:59:08;;;;;;;;;;;;;;;27.13;28.72;100728.69;4496347;31;34323;-70
2023/10/01 10:01:37;;;;;;;;;;;;;;;27.01;28.91;100734.09;4469453;31;33357;-68
2023/10/01 10:04:06;;;;;;;;;;;;;;;27.34;29.84;100734.75;4495334;31;34097;-69
2023/10/01 10:06:34;;;;;;;;;;;;;;;27.60;28.81;100729.16;4489354;31;34149;-68
2023/10/01 10:09:03;;;;;;;;;;;;;;;27.91;28.48;100739.47;4487260;31;34630;-69
2023/10/01 10:11:36;;;;;;;;;;;;;;;27.76;28.48;100733.41;4495254;31;33138;-69
2023/10/01 10:14:28;;;;;;;;;;;;;;;28.20;27.94;100739.13;4478661;31;34250;-68
2023/10/01 10:17:18;;;;;;;;;;;;;;;28.16;27.33;100740.06;4489060;31;34214;-69
2023/10/01 10:23:14;;;;;;;8.20;1.80;;;;;;;28.25;27.51;100745.28;4488034;31;33317;-69
2023/10/01 10:25:43;;;;;;;;;;;;;;;27.96;28.29;100745.66;4495325;31;34031;-68
2023/10/01 10:28:12;;;;;;;;;;;;;;;28.80;27.13;100741.87;4490460;31;34214;-69
2023/10/01 10:30:41;;;;;;;;;;;;;;;28.72;26.75;100742.88;4480413;31;33857;-69
2023/10/01 10:33:29;;;;;;;4.10;1.30;;;;;;;28.70;27.29;100742.91;4491737;31;33457;-69
2023/10/01 10:36:34;;;;;;;8.73;1.40;;;;;;;28.98;27.53;100731.81;4490773;31;34681;-69
2023/10/01 10:39:02;;;;;;;5.50;1.40;;;;;;;29.13;26.91;100723.59;4467964;31;33438;-69
2023/10/01 10:41:31;;;;;;;6.62;1.60;;;;;;;28.99;28.00;100728.22;4485743;31;33987;-69
2023/10/01 10:44:10;;;;;;;5.60;1.10;;;;;;;28.86;27.62;100729.31;4494645;31;31990;-69
2023/10/01 10:46:59;;;;;;;;;;;;;;;29.17;26.28;100711.97;4490241;31;34475;-69
2023/10/01 10:49:48;;;;;;;;;;;;;;;28.72;26.63;100716.22;4495541;31;34065;-69
2023/10/01 10:52:32;;;;;;;;;;;;;;;28.86;26.71;100724.00;4497787;31;34928;-69
2023/10/01 10:55:15;;;;;;;;;;;;;;;29.17;25.86;100714.63;4496280;31;34012;-69
2023/10/01 10:57:50;;;;;;;;;;;;;;;29.04;26.22;100720.16;4486349;31;33954;-68
2023/10/01 11:00:24;;;;;;;;;;;;;;;28.78;26.81;100714.34;4489496;31;34951;-69
2023/10/01 11:02:56;;;;;;;;;;;;;;;28.78;26.53;100714.34;4493495;31;34880;-68
2023/10/01 11:05:30;;;;;;;;;;;;;;;28.42;27.42;100716.62;4489542;31;33390;-69
2023/10/01 11:07:58;;;;;;;;;;;;;;;28.56;27.61;100718.25;4490277;31;34369;-69
2023/10/01 11:10:29;;;;;;;;;;;;;;;28.43;28.18;100713.06;4493549;31;34669;-69
2023/10/01 11:12:56;;;;;;;;;;;;;;;28.65;27.98;100712.78;4489584;31;33576;-69
2023/10/01 11:15:34;;;;;;;;;;;;;;;28.38;28.52;100714.91;4490350;31;33441;-69
2023/10/01 11:18:01;;;;;;;;;;;;;;;28.72;26.99;100717.09;4496484;31;34228;-69
2023/10/01 11:20:32;;;;;;;;;;;;;;;28.55;26.96;100711.13;4480028;31;35033;-69
2023/10/01 11:23:00;;;;;;;;;;;;;;;28.68;27.56;100712.72;4494991;31;34634;-69
2023/10/01 11:25:27;;;;;;;;;;;;;;;28.80;26.47;100707.22;4478211;31;33350;-69
2023/10/01 11:28:05;;;;;;;;;;;;;;;29.10;26.62;100710.25;4492794;31;34095;-69
2023/10/01 11:30:34;;;;;;;;;;;;;;;29.05;26.32;100704.13;4490994;31;33749;-69
2023/10/01 11:33:12;;;;;;;;;;;;;;;29.23;24.65;100699.44;4482757;31;33729;-69
2023/10/01 11:36:06;;;;;;;6.50;1.00;;;;;;;29.15;25.14;100691.56;4493845;31;33564;-68
2023/10/01 11:38:38;;;;;;;5.15;1.45;;;;;;;29.10;25.25;100694.25;4476104;31;33668;-69
2023/10/01 11:41:07;;;;;;;5.90;1.37;;;;;;;28.72;25.46;100693.09;4493631;31;33075;-68
2023/10/01 11:43:41;;;;;;;4.97;1.02;;;;;;;28.56;25.86;100688.94;4493952;31;33691;-68
2023/10/01 11:46:29;;;;;;;6.57;1.10;;;;;;;28.23;26.66;100684.03;4490773;31;33375;-69
2023/10/01 11:49:15;;;;;;;3.47;0.98;;;;;;;28.72;26.42;100666.44;4488357;31;33959;-69
2023/10/01 11:51:50;;;;;;;5.32;1.37;;;;;;;28.12;27.26;100669.09;4490196;31;33913;-69
2023/10/01 11:54:43;;;;;;;3.78;1.10;;;;;;;28.38;26.97;100671.41;4462088;31;33740;-69
2023/10/01 11:57:51;;;;;;;5.40;1.60;;;;;;;28.51;26.98;100680.06;4472975;31;32465;-69
2023/10/01 12:00:06;;;;;;;;;;;;;;;27.70;27.80;100671.37;4475693;31;34138;-68
2023/10/01 12:02:43;;;;;;;;;;;;;;;27.96;27.47;100661.31;4490785;31;34756;-69
2023/10/01 12:08:03;;;;;;;6.30;1.27;;;;;;;28.90;26.92;100653.72;4482955;32;33894;-69
2023/10/01 12:10:36;;;;;;;9.90;2.12;;;;;;;29.21;26.28;100644.28;4489359;31;33847;-69
2023/10/01 12:13:07;;;;;;;8.85;2.47;;;;;;;29.00;25.90;100645.53;4486492;31;34816;-69
2023/10/01 12:15:36;;;;;;;11.07;2.67;;;;;;;28.86;26.18;100642.25;4474651;31;33407;-69
2023/10/01 12:18:08;;;;;;;10.50;3.80;;;;;;;29.32;25.69;100633.44;4491680;31;33408;-69
2023/10/01 12:20:51;;;;;;;;;;;;;;;28.79;26.37;100637.91;4495000;31;32466;-69
2023/10/01 12:23:22;;;;;;;8.35;2.12;;;;;;;29.03;25.68;100633.91;4495500;31;33623;-69
2023/10/01 12:28:27;;;;;;;26.73;8.23;;;;;;;29.35;25.07;100629.81;4490503;31;32388;-69
2023/10/01 12:31:01;;;;;;;17.70;5.35;;;;;;;29.82;25.81;100630.63;4486958;31;33985;-69
2023/10/01 12:33:38;;;;;;;7.95;2.05;;;;;;;29.77;24.69;100629.87;4491630;31;34246;-69
2023/10/01 12:36:31;;;;;;;6.60;1.55;;;;;;;29.65;24.62;100632.75;4493936;31;32791;-69
2023/10/01 12:39:27;;;;;;;6.25;1.30;;;;;;;29.16;24.21;100622.16;4498293;31;33184;-68
2023/10/01 12:44:34;;;;;;;3.55;0.70;;;;;;;29.17;23.36;100620.37;4489115;31;33662;-69
2023/10/01 12:47:02;;;;;;;;;;;;;;;29.29;23.14;100621.94;4487904;31;33652;-69
2023/10/01 12:49:32;;;;;;;;;;;;;;;29.64;23.07;100618.53;4490386;31;33273;-69
2023/10/01 12:52:00;;;;;;;;;;;;;;;29.93;22.27;100617.06;4475459;31;34165;-69
2023/10/01 12:54:28;;;;;;;;;;;;;;;29.79;23.17;100614.69;4490259;31;33784;-69
2023/10/01 12:57:06;;;;;;;3.60;0.93;;;;;;;29.79;23.38;100604.03;4487285;31;33791;-69
2023/10/01 13:07:48;;;;;;;5.28;1.20;;;;;;;29.66;23.47;100607.84;4485978;31;33180;-68
2023/10/01 13:10:33;;;;;;;;;;;;;;;29.46;23.52;100594.88;4489603;31;33281;-69
2023/10/01 13:13:07;;;;;;;5.82;1.40;;;;;;;29.49;23.23;100601.03;4478012;31;33875;-68
2023/10/01 13:15:40;;;;;;;4.03;1.25;;;;;;;29.26;23.76;100592.63;4494066;31;33832;-69
2023/10/01 13:18:18;;;;;;;;;;;;;;;29.50;23.47;100593.94;4476099;31;33965;-68
2023/10/01 13:20:59;;;;;;;6.30;1.23;;;;;;;29.62;22.85;100590.13;4487130;31;33340;-68
2023/10/01 13:23:31;;;;;;;4.15;0.85;;;;;;;29.45;23.06;100598.47;4492576;31;33883;-68
2023/10/01 13:26:05;;;;;;;;;;;;;;;29.16;23.21;100595.47;4487696;31;34661;-68
2023/10/01 13:28:46;;;;;;;;;;;;;;;29.24;23.46;100584.62;4487304;31;33917;-68
2023/10/01 13:34:09;;;;;;;;;;;;;;;28.28;25.30;100596.06;4478967;31;34973;-68
2023/10/01 14:09:52;;;;;;;;;;;;;;;27.78;26.17;100587.88;4488342;31;33967;-68
2023/10/01 14:15:23;;;;;;;;;;;;;;;27.61;27.20;100582.75;4487224;31;33253;-68
2023/10/01 14:17:54;;;;;;;;;;;;;;;27.57;26.80;100578.38;4476756;31;32780;-70
2023/10/01 14:20:38;;;;;;;;;;;;;;;27.48;27.29;100580.28;4492071;31;34106;-71
2023/10/01 14:23:07;;;;;;;;;;;;;;;27.34;27.65;100577.78;4488500;31;34044;-70
2023/10/01 14:25:52;;;;;;;;;;;;;;;28.03;26.74;100566.25;4485647;31;32276;-70
2023/10/01 14:28:20;;;;;;;;;;;;;;;27.53;27.54;100571.34;4491415;31;33587;-69
2023/10/01 14:30:50;;;;;;;;;;;;;;;27.66;27.45;100566.72;4492950;31;34458;-70
2023/10/01 14:33:26;;;;;;;;;;;;;;;27.69;27.12;100563.16;4489888;31;33874;-70
2023/10/01 14:36:28;;;;;;;;;;;;;;;27.99;26.72;100570.75;4490657;31;34092;-71